createdAt,value
2018-05-25T00:00:30.686Z,12.60
2018-05-25T00:02:58.117Z,11.80
2018-05-25T00:05:25.513Z,12.13
2018-05-25T00:07:52.940Z,12.50
2018-05-25T00:10:20.337Z,12.25
2018-05-25T00:12:47.757Z,12.65
2018-05-25T00:15:15.197Z,12.73
2018-05-25T00:17:42.589Z,12.45
2018-05-25T00:20:09.988Z,13.30
2018-05-25T00:22:37.461Z,12.93
2018-05-25T00:25:04.865Z,12.75
2018-05-25T00:27:32.258Z,13.23
2018-05-25T00:29:59.665Z,12.82
2018-05-25T00:32:27.066Z,11.97
2018-05-25T00:34:54.472Z,13.20
2018-05-25T00:37:21.872Z,13.00
2018-05-25T00:39:49.345Z,13.65
2018-05-25T00:42:16.745Z,13.00
2018-05-25T00:44:44.164Z,13.05
2018-05-25T00:47:11.629Z,13.37
2018-05-25T00:49:39.104Z,11.93
2018-05-25T00:52:06.565Z,13.43
2018-05-25T00:54:34.057Z,13.02
2018-05-25T00:57:01.509Z,12.80
2018-05-25T00:59:29.004Z,12.37
2018-05-25T01:01:56.392Z,13.88
2018-05-25T01:04:23.796Z,13.57
2018-05-25T01:06:51.193Z,11.63
2018-05-25T01:09:18.604Z,12.15
2018-05-25T01:11:46.001Z,11.93
2018-05-25T01:14:13.492Z,14.05
2018-05-25T01:16:40.909Z,14.73
2018-05-25T01:19:08.341Z,13.70
2018-05-25T01:21:35.792Z,13.33
2018-05-25T01:24:03.197Z,15.05
2018-05-25T01:26:30.601Z,13.67
2018-05-25T01:28:58.109Z,14.30
2018-05-25T01:31:25.573Z,15.23
2018-05-25T01:33:52.976Z,13.93
2018-05-25T01:36:20.371Z,17.30
2018-05-25T01:38:47.837Z,17.67
2018-05-25T01:41:15.245Z,16.33
2018-05-25T01:43:42.716Z,14.98
2018-05-25T01:46:10.197Z,14.77
2018-05-25T01:48:37.625Z,14.30
2018-05-25T01:51:05.021Z,13.35
2018-05-25T01:53:32.425Z,13.35
2018-05-25T01:55:59.852Z,13.57
2018-05-25T01:58:27.332Z,15.05
2018-05-25T02:00:54.806Z,14.13
2018-05-25T02:03:22.224Z,13.98
2018-05-25T02:05:49.728Z,13.93
2018-05-25T02:08:17.201Z,14.77
2018-05-25T02:10:44.684Z,14.97
2018-05-25T02:13:12.245Z,13.65
2018-05-25T02:15:39.647Z,15.98
2018-05-25T02:18:07.061Z,13.98
2018-05-25T02:20:34.461Z,14.75
2018-05-25T02:23:01.914Z,16.10
2018-05-25T02:25:29.387Z,14.03
2018-05-25T02:27:56.853Z,14.32
2018-05-25T02:30:24.326Z,15.57
2018-05-25T02:32:51.729Z,16.48
2018-05-25T02:35:19.164Z,15.23
2018-05-25T02:37:46.559Z,15.88
2018-05-25T02:40:13.969Z,15.30
2018-05-25T02:42:41.365Z,16.42
2018-05-25T02:45:08.765Z,16.17
2018-05-25T02:47:36.193Z,14.50
2018-05-25T02:50:03.665Z,15.82
2018-05-25T02:52:31.157Z,14.82
2018-05-25T02:54:58.548Z,15.90
2018-05-25T02:57:25.981Z,16.00
2018-05-25T02:59:53.379Z,17.00
2018-05-25T03:02:20.781Z,15.95
2018-05-25T03:04:48.277Z,16.30
2018-05-25T03:07:15.752Z,16.37
2018-05-25T03:09:43.221Z,15.93
2018-05-25T03:12:10.813Z,14.63
2018-05-25T03:14:38.221Z,16.58
2018-05-25T03:17:05.689Z,17.33
2018-05-25T03:19:33.113Z,17.75
2018-05-25T03:22:00.560Z,17.27
2018-05-25T03:24:27.965Z,16.60
2018-05-25T03:26:55.372Z,17.67
2018-05-25T03:29:22.877Z,17.70
2018-05-25T03:31:50.287Z,17.00
2018-05-25T03:34:17.709Z,17.02
2018-05-25T03:36:45.105Z,17.00
2018-05-25T03:39:12.509Z,16.65
2018-05-25T03:41:40.018Z,18.30
2018-05-25T03:44:07.429Z,17.33
2018-05-25T03:46:34.831Z,18.87
2018-05-25T03:49:02.254Z,17.77
2018-05-25T03:51:29.684Z,16.98
2018-05-25T03:53:57.152Z,17.75
2018-05-25T03:56:24.560Z,17.45
2018-05-25T03:59:03.968Z,15.43
2018-05-25T04:01:43.341Z,18.20
2018-05-25T04:04:10.801Z,15.98
2018-05-25T04:06:38.221Z,16.95
2018-05-25T04:09:05.617Z,17.48
2018-05-25T04:11:33.025Z,17.02
2018-05-25T04:14:00.419Z,18.08
2018-05-25T04:16:27.839Z,17.62
2018-05-25T04:18:55.339Z,16.92
2018-05-25T04:21:22.733Z,15.85
2018-05-25T04:23:50.136Z,17.85
2018-05-25T04:26:17.578Z,17.37
2018-05-25T04:28:44.936Z,17.73
2018-05-25T04:31:12.341Z,17.10
2018-05-25T04:33:39.813Z,17.93
2018-05-25T04:36:07.281Z,17.62
2018-05-25T04:38:34.744Z,16.60
2018-05-25T04:41:02.226Z,17.98
2018-05-25T04:43:29.621Z,16.42
2018-05-25T04:45:57.025Z,16.55
2018-05-25T04:48:24.481Z,17.13
2018-05-25T04:50:51.845Z,17.52
2018-05-25T04:53:19.353Z,17.02
2018-05-25T04:55:46.777Z,16.95
2018-05-25T04:58:14.169Z,17.37
2018-05-25T05:00:41.585Z,17.70
2018-05-25T05:03:08.988Z,18.47
2018-05-25T05:05:36.518Z,19.67
2018-05-25T05:08:03.969Z,20.53
2018-05-25T05:10:31.385Z,22.50
2018-05-25T05:12:58.806Z,22.50
2018-05-25T05:15:26.211Z,20.35
2018-05-25T05:17:53.613Z,21.70
2018-05-25T05:20:21.157Z,22.23
2018-05-25T05:22:48.565Z,20.53
2018-05-25T05:25:15.968Z,19.55
2018-05-25T05:27:43.362Z,20.62
2018-05-25T05:30:10.805Z,21.15
2018-05-25T05:32:38.259Z,19.70
2018-05-25T05:35:05.713Z,20.65
2018-05-25T05:37:33.198Z,21.73
2018-05-25T05:40:00.627Z,20.05
2018-05-25T05:42:28.032Z,21.05
2018-05-25T05:44:55.512Z,19.02
2018-05-25T05:47:22.917Z,19.40
2018-05-25T05:49:50.334Z,19.00
2018-05-25T05:52:17.805Z,19.35
2018-05-25T05:54:45.220Z,18.40
2018-05-25T05:57:12.617Z,19.90
2018-05-25T05:59:40.022Z,18.33
2018-05-25T06:02:07.413Z,18.92
2018-05-25T06:04:34.923Z,24.73
2018-05-25T06:07:02.318Z,24.65
2018-05-25T06:09:29.789Z,24.48
2018-05-25T06:11:57.189Z,22.10
2018-05-25T06:14:24.845Z,23.58
2018-05-25T06:16:52.310Z,21.45
2018-05-25T06:19:19.828Z,22.42
2018-05-25T06:21:47.265Z,23.05
2018-05-25T06:24:14.673Z,24.67
2018-05-25T06:26:42.172Z,25.48
2018-05-25T06:29:09.649Z,25.17
2018-05-25T06:31:37.416Z,27.83
2018-05-25T06:34:04.818Z,26.23
2018-05-25T06:36:32.204Z,26.77
2018-05-25T06:38:59.610Z,25.08
2018-05-25T06:41:27.103Z,26.53
2018-05-25T06:43:54.568Z,21.83
2018-05-25T06:46:22.029Z,22.23
2018-05-25T06:48:49.433Z,21.95
2018-05-25T06:51:16.836Z,23.05
2018-05-25T06:53:44.229Z,23.58
2018-05-25T06:56:11.628Z,23.97
2018-05-25T06:58:39.053Z,23.80
2018-05-25T07:01:06.541Z,24.70
2018-05-25T07:03:34.109Z,23.87
2018-05-25T07:06:01.574Z,24.23
2018-05-25T07:08:29.062Z,21.60
2018-05-25T07:10:56.528Z,25.02
2018-05-25T07:13:23.997Z,25.08
2018-05-25T07:15:51.417Z,24.77
2018-05-25T07:18:18.813Z,26.73
2018-05-25T07:20:46.561Z,28.60
2018-05-25T07:23:14.069Z,34.40
2018-05-25T07:25:41.547Z,30.92
2018-05-25T07:28:09.013Z,24.67
2018-05-25T07:30:36.505Z,25.95
2018-05-25T07:33:03.981Z,28.00
2018-05-25T07:35:31.377Z,29.23
2018-05-25T07:37:58.777Z,24.63
2018-05-25T07:40:26.253Z,29.02
2018-05-25T07:42:53.644Z,25.93
2018-05-25T07:45:21.069Z,25.30
2018-05-25T07:47:48.465Z,23.23
2018-05-25T07:50:16.185Z,28.75
2018-05-25T07:52:43.757Z,27.90
2018-05-25T07:55:11.201Z,31.67
2018-05-25T07:57:38.646Z,30.70
2018-05-25T08:00:06.114Z,30.50
2018-05-25T08:02:33.640Z,24.40
2018-05-25T08:05:01.039Z,22.87
2018-05-25T08:07:28.456Z,23.42
2018-05-25T08:09:55.857Z,24.05
2018-05-25T08:12:33.190Z,23.67
2018-05-25T08:15:00.649Z,23.80
2018-05-25T08:17:28.057Z,23.08
2018-05-25T08:19:55.489Z,22.73
2018-05-25T08:22:22.890Z,22.80
2018-05-25T08:24:50.314Z,31.17
2018-05-25T08:27:17.793Z,23.97
2018-05-25T08:29:45.268Z,21.87
2018-05-25T08:32:12.665Z,20.87
2018-05-25T08:34:40.108Z,22.90
2018-05-25T08:37:07.521Z,20.03
2018-05-25T08:39:34.952Z,19.02
2018-05-25T08:42:02.349Z,17.95
2018-05-25T08:44:29.776Z,18.67
2018-05-25T08:46:57.240Z,20.55
2018-05-25T08:49:24.796Z,18.90
2018-05-25T08:51:52.214Z,20.77
2018-05-25T08:54:19.697Z,19.35
2018-05-25T08:56:47.105Z,18.85
2018-05-25T08:59:14.509Z,17.85
2018-05-25T09:01:41.966Z,16.80
2018-05-25T09:04:09.445Z,17.17
2018-05-25T09:06:36.877Z,18.50
2018-05-25T09:09:04.384Z,16.25
2018-05-25T09:11:31.804Z,17.42
2018-05-25T09:13:59.209Z,15.20
2018-05-25T09:16:26.610Z,19.75
2018-05-25T09:18:54.009Z,15.55
2018-05-25T09:21:21.400Z,16.98
2018-05-25T09:23:48.808Z,15.80
2018-05-25T09:26:16.210Z,12.77
2018-05-25T09:28:43.604Z,15.37
2018-05-25T09:31:11.092Z,14.18
2018-05-25T09:33:38.493Z,14.23
2018-05-25T09:36:05.929Z,15.93
2018-05-25T09:38:33.352Z,13.65
2018-05-25T09:41:00.870Z,16.00
2018-05-25T09:43:28.303Z,12.75
2018-05-25T09:45:55.698Z,15.27
2018-05-25T09:48:23.112Z,12.43
2018-05-25T09:50:50.517Z,12.82
2018-05-25T09:53:17.999Z,12.13
2018-05-25T09:55:45.400Z,15.07
2018-05-25T09:58:12.821Z,12.18
2018-05-25T10:00:40.237Z,11.47
2018-05-25T10:03:07.671Z,13.45
2018-05-25T10:05:35.141Z,12.70
2018-05-25T10:08:02.644Z,12.95
2018-05-25T10:10:30.045Z,10.70
2018-05-25T10:12:57.456Z,12.50
2018-05-25T10:15:24.855Z,13.38
2018-05-25T10:17:52.301Z,12.93
2018-05-25T10:20:19.746Z,13.45
2018-05-25T10:22:47.226Z,13.47
2018-05-25T10:25:14.688Z,12.90
2018-05-25T10:27:42.093Z,13.90
2018-05-25T10:30:09.521Z,12.82
2018-05-25T10:32:37.008Z,12.60
2018-05-25T10:35:04.482Z,13.10
2018-05-25T10:37:31.841Z,12.02
2018-05-25T10:39:59.264Z,10.98
2018-05-25T10:42:26.657Z,11.50
2018-05-25T10:44:54.133Z,11.07
2018-05-25T10:47:21.564Z,11.00
2018-05-25T10:49:48.957Z,11.50
2018-05-25T10:52:16.449Z,10.43
2018-05-25T10:54:43.916Z,10.50
2018-05-25T10:57:11.364Z,10.68
2018-05-25T10:59:38.773Z,10.70
2018-05-25T11:02:06.222Z,11.80
2018-05-25T11:04:33.616Z,10.48
2018-05-25T11:07:01.044Z,9.97
2018-05-25T11:09:28.460Z,11.80
2018-05-25T11:11:55.878Z,10.80
2018-05-25T11:14:23.356Z,11.02
2018-05-25T11:16:50.809Z,10.80
2018-05-25T11:19:18.293Z,9.55
2018-05-25T11:21:45.775Z,11.15
2018-05-25T11:24:13.164Z,10.85
2018-05-25T11:26:40.565Z,10.50
2018-05-25T11:29:08.073Z,10.68
2018-05-25T11:31:35.548Z,10.40
2018-05-25T11:34:02.957Z,9.77
2018-05-25T11:36:30.375Z,10.00
2018-05-25T11:38:57.781Z,9.70
2018-05-25T11:41:25.181Z,9.52
2018-05-25T11:43:53.521Z,9.38
2018-05-25T11:46:20.973Z,10.10
2018-05-25T11:48:48.449Z,9.97
2018-05-25T11:51:15.861Z,9.43
2018-05-25T11:53:43.293Z,8.95
2018-05-25T11:56:10.713Z,9.18
2018-05-25T11:58:38.112Z,9.40
2018-05-25T12:01:05.509Z,9.15
2018-05-25T12:03:32.917Z,9.10
2018-05-25T12:06:00.520Z,9.88
2018-05-25T12:08:27.993Z,8.63
2018-05-25T12:10:55.459Z,9.23
2018-05-25T12:13:22.943Z,8.77
2018-05-25T12:15:50.633Z,8.98
2018-05-25T12:18:18.037Z,8.63
2018-05-25T12:20:45.903Z,8.65
2018-05-25T12:23:13.321Z,8.43
2018-05-25T12:25:40.801Z,7.85
2018-05-25T12:28:08.226Z,8.23
2018-05-25T12:30:35.605Z,8.02
2018-05-25T12:33:03.009Z,8.40
2018-05-25T12:35:30.423Z,8.40
2018-05-25T12:37:57.815Z,7.80
2018-05-25T12:40:25.295Z,8.77
2018-05-25T12:42:52.769Z,8.73
2018-05-25T12:45:20.175Z,7.60
2018-05-25T12:47:47.602Z,7.43
2018-05-25T12:50:15.069Z,8.38
2018-05-25T12:52:42.555Z,8.10
2018-05-25T12:55:09.941Z,7.30
2018-05-25T12:57:37.337Z,7.30
2018-05-25T13:00:04.758Z,8.00
2018-05-25T13:02:32.221Z,6.18
2018-05-25T13:04:59.680Z,7.07
2018-05-25T13:07:27.089Z,7.30
2018-05-25T13:09:54.468Z,7.53
2018-05-25T13:12:21.896Z,6.20
2018-05-25T13:14:49.345Z,6.87
2018-05-25T13:17:16.740Z,7.03
2018-05-25T13:19:44.125Z,6.97
2018-05-25T13:22:11.532Z,7.50
2018-05-25T13:24:38.941Z,7.45
2018-05-25T13:27:06.373Z,6.72
2018-05-25T13:29:33.806Z,7.80
2018-05-25T13:32:01.194Z,7.07
2018-05-25T13:34:28.603Z,7.22
2018-05-25T13:36:55.988Z,6.70
2018-05-25T13:39:23.435Z,7.10
2018-05-25T13:41:50.817Z,6.87
2018-05-25T13:44:18.285Z,6.80
2018-05-25T13:46:45.705Z,6.37
2018-05-25T13:49:13.102Z,6.22
2018-05-25T13:51:40.504Z,6.37
2018-05-25T13:54:07.945Z,6.60
2018-05-25T13:56:35.421Z,6.75
2018-05-25T13:59:02.805Z,6.07
2018-05-25T14:01:30.257Z,5.60
2018-05-25T14:03:57.643Z,4.97
2018-05-25T14:06:25.049Z,5.80
2018-05-25T14:08:52.462Z,6.28
2018-05-25T14:11:19.926Z,5.65
2018-05-25T14:13:47.261Z,6.70
2018-05-25T14:16:14.645Z,5.35
2018-05-25T14:18:42.120Z,5.65
2018-05-25T14:21:09.501Z,5.43
2018-05-25T14:23:36.973Z,5.45
2018-05-25T14:26:04.377Z,5.68
2018-05-25T14:28:31.781Z,5.50
2018-05-25T14:30:59.185Z,5.37
2018-05-25T14:33:26.642Z,6.40
2018-05-25T14:35:54.033Z,5.60
2018-05-25T14:38:21.509Z,5.20
2018-05-25T14:40:48.908Z,5.53
2018-05-25T14:43:16.293Z,5.30
2018-05-25T14:45:43.781Z,5.97
2018-05-25T14:48:11.165Z,5.37
2018-05-25T14:50:38.577Z,5.70
2018-05-25T14:53:05.973Z,5.43
2018-05-25T14:55:33.450Z,5.53
2018-05-25T14:58:00.921Z,5.12
2018-05-25T15:00:28.458Z,5.70
2018-05-25T15:02:55.861Z,5.12
2018-05-25T15:05:23.338Z,6.20
2018-05-25T15:07:50.797Z,5.82
2018-05-25T15:10:18.201Z,5.53
2018-05-25T15:12:45.629Z,5.60
2018-05-25T15:15:13.016Z,5.68
2018-05-25T15:17:40.413Z,5.75
2018-05-25T15:20:07.821Z,5.70
2018-05-25T15:22:35.309Z,5.97
2018-05-25T15:25:02.800Z,5.87
2018-05-25T15:27:30.206Z,5.43
2018-05-25T15:29:57.589Z,5.33
2018-05-25T15:32:24.999Z,5.55
2018-05-25T15:34:52.384Z,5.43
2018-05-25T15:37:19.784Z,6.10
2018-05-25T15:39:47.225Z,5.55
2018-05-25T15:42:14.624Z,5.60
2018-05-25T15:44:42.014Z,5.20
2018-05-25T15:47:09.433Z,5.60
2018-05-25T15:49:36.837Z,5.32
2018-05-25T15:52:04.224Z,4.93
2018-05-25T15:54:32.502Z,5.32
2018-05-25T15:56:59.900Z,5.03
2018-05-25T15:59:27.344Z,5.47
2018-05-25T16:01:54.756Z,5.40
2018-05-25T16:04:22.180Z,5.40
2018-05-25T16:06:49.580Z,5.22
2018-05-25T16:09:17.029Z,5.68
2018-05-25T16:11:44.523Z,5.80
